createdAt,value
2023-04-18T00:00:14.328Z,35.29
2023-04-18T00:01:14.419Z,35.33
2023-04-18T00:02:14.414Z,35.34
2023-04-18T00:03:14.554Z,35.33
2023-04-18T00:04:14.828Z,35.32
2023-04-18T00:05:14.329Z,35.34
2023-04-18T00:06:14.305Z,35.32
2023-04-18T00:07:14.309Z,35.33
2023-04-18T00:08:14.281Z,35.33
2023-04-18T00:09:14.348Z,35.33
2023-04-18T00:10:14.308Z,35.32
2023-04-18T00:11:14.295Z,35.31
2023-04-18T00:12:14.256Z,35.31
2023-04-18T00:13:14.244Z,35.28
2023-04-18T00:14:14.491Z,35.27
2023-04-18T00:15:14.255Z,35.30
2023-04-18T00:16:14.326Z,35.30
2023-04-18T00:17:14.257Z,35.28
2023-04-18T00:18:14.208Z,35.29
2023-04-18T00:19:14.287Z,35.29
2023-04-18T00:20:14.196Z,35.32
2023-04-18T00:21:14.215Z,35.31
2023-04-18T00:22:14.177Z,35.30
2023-04-18T00:23:14.260Z,35.33
2023-04-18T00:24:14.388Z,35.35
2023-04-18T00:25:14.207Z,35.36
2023-04-18T00:26:14.175Z,35.33
2023-04-18T00:27:14.142Z,35.29
2023-04-18T00:28:14.145Z,35.28
2023-04-18T00:29:14.149Z,35.30
2023-04-18T00:30:14.164Z,35.31
2023-04-18T00:31:14.229Z,35.34
2023-04-18T00:32:14.113Z,35.34
2023-04-18T00:33:14.190Z,35.33
2023-04-18T00:34:14.350Z,35.31
2023-04-18T00:35:14.092Z,35.28
2023-04-18T00:36:14.090Z,35.29
2023-04-18T00:37:14.084Z,35.25
2023-04-18T00:38:14.088Z,35.27
2023-04-18T00:39:14.144Z,35.28
2023-04-18T00:40:14.058Z,35.28
2023-04-18T00:41:14.078Z,35.29
2023-04-18T00:42:14.062Z,35.27
2023-04-18T00:43:14.062Z,35.27
2023-04-18T00:44:14.451Z,35.27
2023-04-18T00:45:14.063Z,35.28
2023-04-18T00:46:14.058Z,35.27
2023-04-18T00:47:14.022Z,35.26
2023-04-18T00:48:14.006Z,35.24
2023-04-18T00:49:14.009Z,35.26
2023-04-18T00:50:14.014Z,35.28
2023-04-18T00:51:14.011Z,35.24
2023-04-18T00:52:13.980Z,35.24
2023-04-18T00:53:13.954Z,35.22
2023-04-18T00:54:14.163Z,35.20
2023-04-18T00:55:13.953Z,35.23
2023-04-18T00:56:13.951Z,35.23
2023-04-18T00:57:13.938Z,35.22
2023-04-18T00:58:13.974Z,35.22
2023-04-18T00:59:13.977Z,35.20
2023-04-18T01:00:13.923Z,35.21
2023-04-18T01:01:13.955Z,35.20
2023-04-18T01:02:13.940Z,35.23
2023-04-18T01:03:14.049Z,35.20
2023-04-18T01:04:14.422Z,35.19
2023-04-18T01:05:13.958Z,35.20
2023-04-18T01:06:13.935Z,35.17
2023-04-18T01:07:13.868Z,35.19
2023-04-18T01:08:13.861Z,35.18
2023-04-18T01:09:13.926Z,35.17
2023-04-18T01:10:13.873Z,35.20
2023-04-18T01:11:13.833Z,35.19
2023-04-18T01:12:13.961Z,35.17
2023-04-18T01:13:13.843Z,35.14
2023-04-18T01:14:14.045Z,35.15
2023-04-18T01:15:13.851Z,35.15
2023-04-18T01:16:13.913Z,35.15
2023-04-18T01:17:13.797Z,35.12
2023-04-18T01:18:13.830Z,35.13
2023-04-18T01:19:13.953Z,35.10
2023-04-18T01:20:13.822Z,35.09
2023-04-18T01:21:13.766Z,35.12
2023-04-18T01:22:13.791Z,35.08
2023-04-18T01:23:13.788Z,35.10
2023-04-18T01:24:13.874Z,35.06
2023-04-18T01:25:13.750Z,35.09
2023-04-18T01:26:13.775Z,35.12
2023-04-18T01:27:13.802Z,35.08
2023-04-18T01:28:13.809Z,35.08
2023-04-18T01:29:13.732Z,35.08
2023-04-18T01:30:13.721Z,35.05
2023-04-18T01:31:13.785Z,35.01
2023-04-18T01:32:13.712Z,35.06
2023-04-18T01:33:13.749Z,35.01
2023-04-18T01:34:13.820Z,35.03
2023-04-18T01:35:13.703Z,35.00
2023-04-18T01:36:13.692Z,35.00
2023-04-18T01:37:13.713Z,34.98
2023-04-18T01:38:13.689Z,35.00
2023-04-18T01:39:13.709Z,34.98
2023-04-18T01:40:13.676Z,34.98
2023-04-18T01:41:13.692Z,34.96
2023-04-18T01:42:13.651Z,34.94
2023-04-18T01:43:13.677Z,34.96
2023-04-18T01:44:13.954Z,34.95
2023-04-18T01:45:13.706Z,34.93
2023-04-18T01:46:13.678Z,34.90
2023-04-18T01:47:13.657Z,34.90
2023-04-18T01:48:13.642Z,34.90
2023-04-18T01:49:13.599Z,34.90
2023-04-18T01:50:13.617Z,34.88
2023-04-18T01:51:13.627Z,34.87
2023-04-18T01:52:13.594Z,34.87
2023-04-18T01:53:13.614Z,34.87
2023-04-18T01:54:13.746Z,34.86
2023-04-18T01:55:13.594Z,34.88
2023-04-18T01:56:13.554Z,34.87
2023-04-18T01:57:13.565Z,34.86
2023-04-18T01:58:13.578Z,34.85
2023-04-18T01:59:13.571Z,34.89
2023-04-18T02:00:13.537Z,34.82
2023-04-18T02:01:13.600Z,34.85
2023-04-18T02:02:13.633Z,34.83
2023-04-18T02:03:13.655Z,34.83
2023-04-18T02:04:13.887Z,34.84
2023-04-18T02:05:13.530Z,34.83
2023-04-18T02:06:13.486Z,34.82
2023-04-18T02:07:13.515Z,34.82
2023-04-18T02:08:13.470Z,34.82
2023-04-18T02:09:13.475Z,34.82
2023-04-18T02:10:13.466Z,34.82
2023-04-18T02:11:13.457Z,34.79
2023-04-18T02:12:13.427Z,34.80
2023-04-18T02:13:13.451Z,34.80
2023-04-18T02:14:13.505Z,34.80
2023-04-18T02:15:13.505Z,34.77
2023-04-18T02:16:13.433Z,34.79
2023-04-18T02:17:13.455Z,34.79
2023-04-18T02:18:13.397Z,34.78
2023-04-18T02:19:13.403Z,34.78
2023-04-18T02:20:13.388Z,34.78
2023-04-18T02:21:13.401Z,34.77
2023-04-18T02:22:13.386Z,34.78
2023-04-18T02:23:13.363Z,34.77
2023-04-18T02:24:13.582Z,34.78
2023-04-18T02:25:13.833Z,34.76
2023-04-18T02:26:13.348Z,34.75
2023-04-18T02:27:13.343Z,34.75
2023-04-18T02:28:13.342Z,34.74
2023-04-18T02:29:13.310Z,34.74
2023-04-18T02:30:13.346Z,34.75
2023-04-18T02:31:13.323Z,34.74
2023-04-18T02:32:13.354Z,34.72
2023-04-18T02:33:13.313Z,34.73
2023-04-18T02:34:13.578Z,34.73
2023-04-18T02:35:13.287Z,34.74
2023-04-18T02:36:13.340Z,34.73
2023-04-18T02:37:13.268Z,34.73
2023-04-18T02:38:13.275Z,34.71
2023-04-18T02:39:13.279Z,34.74
2023-04-18T02:40:13.299Z,34.73
2023-04-18T02:41:13.277Z,34.76
2023-04-18T02:42:13.249Z,34.75
2023-04-18T02:43:13.249Z,34.76
2023-04-18T02:44:13.299Z,34.75
2023-04-18T02:45:13.242Z,34.75
2023-04-18T02:46:13.256Z,34.73
2023-04-18T02:47:13.199Z,34.74
2023-04-18T02:48:13.220Z,34.79
2023-04-18T02:49:13.174Z,34.75
2023-04-18T02:50:13.194Z,34.75
2023-04-18T02:51:13.173Z,34.73
2023-04-18T02:52:13.164Z,34.73
2023-04-18T02:53:13.155Z,34.76
2023-04-18T02:54:13.365Z,34.76
2023-04-18T02:55:13.152Z,34.77
2023-04-18T02:56:13.188Z,34.75
2023-04-18T02:57:13.147Z,34.75
2023-04-18T02:58:13.111Z,34.75
2023-04-18T02:59:13.111Z,34.74
2023-04-18T03:00:13.108Z,34.73
2023-04-18T03:01:13.205Z,34.71
2023-04-18T03:02:13.132Z,34.71
2023-04-18T03:03:13.233Z,34.70
2023-04-18T03:04:13.493Z,34.71
2023-04-18T03:05:13.238Z,34.68
2023-04-18T03:06:13.263Z,34.70
2023-04-18T03:07:13.223Z,34.70
2023-04-18T03:08:13.225Z,34.68
2023-04-18T03:09:13.225Z,34.68
2023-04-18T03:10:13.203Z,34.69
2023-04-18T03:11:13.304Z,34.69
2023-04-18T03:12:13.226Z,34.67
2023-04-18T03:13:13.262Z,34.65
2023-04-18T03:14:13.374Z,34.66
2023-04-18T03:15:13.248Z,34.66
2023-04-18T03:16:13.343Z,34.67
2023-04-18T03:17:13.282Z,34.65
2023-04-18T03:18:13.295Z,34.66
2023-04-18T03:19:13.282Z,34.65
2023-04-18T03:20:13.348Z,34.64
2023-04-18T03:21:13.360Z,34.65
2023-04-18T03:22:13.336Z,34.63
2023-04-18T03:23:13.448Z,34.64
2023-04-18T03:24:13.654Z,34.61
2023-04-18T03:25:13.356Z,34.62
2023-04-18T03:26:13.339Z,34.62
2023-04-18T03:27:13.373Z,34.62
2023-04-18T03:28:13.384Z,34.60
2023-04-18T03:29:13.428Z,34.61
2023-04-18T03:30:13.426Z,34.59
2023-04-18T03:31:13.550Z,34.60
2023-04-18T03:32:13.407Z,34.58
2023-04-18T03:33:13.437Z,34.60
2023-04-18T03:34:13.698Z,34.58
2023-04-18T03:35:13.536Z,34.55
2023-04-18T03:36:13.488Z,34.56
2023-04-18T03:37:13.484Z,34.57
2023-04-18T03:38:13.488Z,34.57
2023-04-18T03:39:13.554Z,34.54
2023-04-18T03:40:13.565Z,34.56
2023-04-18T03:41:13.529Z,34.57
2023-04-18T03:42:13.615Z,34.54
2023-04-18T03:43:13.619Z,34.55
2023-04-18T03:44:13.908Z,34.56
2023-04-18T03:45:13.686Z,34.57
2023-04-18T03:46:13.760Z,34.56
2023-04-18T03:47:13.730Z,34.53
2023-04-18T03:48:13.802Z,34.55
2023-04-18T03:49:13.835Z,34.55
2023-04-18T03:50:13.866Z,34.51
2023-04-18T03:51:13.917Z,34.52
2023-04-18T03:52:13.940Z,34.55
2023-04-18T03:53:13.958Z,34.51
2023-04-18T03:54:14.116Z,34.54
2023-04-18T03:55:14.011Z,34.54
2023-04-18T03:56:14.005Z,34.52
2023-04-18T03:57:14.028Z,34.50
2023-04-18T03:58:14.051Z,34.52
2023-04-18T03:59:14.052Z,34.51
2023-04-18T04:00:14.095Z,34.53
2023-04-18T04:01:14.108Z,34.52
2023-04-18T04:02:14.204Z,34.50
2023-04-18T04:03:14.269Z,34.51
2023-04-18T04:04:14.531Z,34.49
2023-04-18T04:05:14.228Z,34.48
2023-04-18T04:06:14.216Z,34.51
2023-04-18T04:07:14.220Z,34.51
2023-04-18T04:08:14.236Z,34.47
2023-04-18T04:09:14.254Z,34.46
2023-04-18T04:10:14.274Z,34.50
2023-04-18T04:11:14.271Z,34.49
2023-04-18T04:12:14.317Z,34.47
2023-04-18T04:13:14.293Z,34.50
2023-04-18T04:14:14.494Z,34.49
2023-04-18T04:15:14.314Z,34.48
2023-04-18T04:16:14.350Z,34.49
2023-04-18T04:17:14.298Z,34.46
2023-04-18T04:18:14.324Z,34.48
2023-04-18T04:19:14.335Z,34.47
2023-04-18T04:20:14.378Z,34.44
2023-04-18T04:21:14.403Z,34.45
2023-04-18T04:22:14.352Z,34.44
2023-04-18T04:23:14.408Z,34.49
2023-04-18T04:24:14.524Z,34.45
2023-04-18T04:25:14.404Z,34.42
2023-04-18T04:26:14.418Z,34.45
2023-04-18T04:27:14.444Z,34.43
2023-04-18T04:28:14.416Z,34.43
2023-04-18T04:29:14.424Z,34.44
2023-04-18T04:30:14.442Z,34.45
2023-04-18T04:31:14.472Z,34.45
2023-04-18T04:32:14.474Z,34.43
2023-04-18T04:33:14.452Z,34.42
2023-04-18T04:34:14.691Z,34.43
2023-04-18T04:35:14.997Z,34.45
2023-04-18T04:36:14.555Z,34.42
2023-04-18T04:37:14.468Z,34.43
2023-04-18T04:38:14.545Z,34.41
2023-04-18T04:39:14.511Z,34.45
2023-04-18T04:40:14.526Z,34.45
2023-04-18T04:41:14.559Z,34.45
2023-04-18T04:42:14.555Z,34.45
2023-04-18T04:43:14.583Z,34.44
2023-04-18T04:44:14.795Z,34.45
2023-04-18T04:45:14.578Z,34.45
2023-04-18T04:46:14.669Z,34.45
2023-04-18T04:47:14.654Z,34.43
2023-04-18T04:48:14.645Z,34.45
2023-04-18T04:49:14.769Z,34.42
2023-04-18T04:50:14.746Z,34.43
2023-04-18T04:51:14.651Z,34.43
2023-04-18T04:52:14.649Z,34.43
2023-04-18T04:53:14.678Z,34.43
2023-04-18T04:54:14.752Z,34.43
2023-04-18T04:55:14.721Z,34.43
2023-04-18T04:56:14.689Z,34.42
2023-04-18T04:57:14.777Z,34.43
2023-04-18T04:58:14.756Z,34.40
2023-04-18T04:59:14.746Z,34.42
2023-04-18T05:00:14.801Z,34.43
2023-04-18T05:01:14.790Z,34.42
2023-04-18T05:02:14.893Z,34.40
2023-04-18T05:03:14.930Z,34.40
2023-04-18T05:04:15.069Z,34.40
2023-04-18T05:05:14.893Z,34.40
2023-04-18T05:06:14.880Z,34.38
2023-04-18T05:07:14.988Z,34.38
2023-04-18T05:08:14.966Z,34.40
2023-04-18T05:09:14.967Z,34.40
2023-04-18T05:10:14.993Z,34.37
2023-04-18T05:11:15.151Z,34.38
2023-04-18T05:12:15.054Z,34.39
2023-04-18T05:13:15.134Z,34.36
2023-04-18T05:14:15.275Z,34.36
2023-04-18T05:15:15.092Z,34.37
2023-04-18T05:16:15.144Z,34.33
2023-04-18T05:17:15.179Z,34.35
2023-04-18T05:18:15.134Z,34.36
2023-04-18T05:19:15.217Z,34.35
2023-04-18T05:20:15.184Z,34.33
2023-04-18T05:21:15.211Z,34.36
2023-04-18T05:22:15.219Z,34.31
2023-04-18T05:23:15.402Z,34.32
2023-04-18T05:24:15.420Z,34.30
2023-04-18T05:25:15.323Z,34.33
2023-04-18T05:26:15.319Z,34.33
2023-04-18T05:27:17.665Z,34.31
2023-04-18T05:28:15.410Z,34.33
2023-04-18T05:29:15.363Z,34.34
2023-04-18T05:30:15.326Z,34.32
2023-04-18T05:31:15.377Z,34.30
2023-04-18T05:32:15.325Z,34.31
2023-04-18T05:33:15.299Z,34.30
2023-04-18T05:34:16.067Z,34.32
2023-04-18T05:35:15.316Z,34.55
2023-04-18T05:36:15.347Z,34.76
2023-04-18T05:37:15.255Z,36.55
2023-04-18T05:38:15.293Z,35.67
2023-04-18T05:39:15.251Z,35.83
2023-04-18T05:40:15.414Z,35.91
2023-04-18T05:41:15.918Z,36.36
2023-04-18T05:42:15.305Z,36.31
2023-04-18T05:43:15.410Z,36.39
2023-04-18T05:44:15.239Z,36.65
2023-04-18T05:45:15.433Z,37.08
2023-04-18T05:46:15.251Z,37.35
2023-04-18T05:47:15.215Z,37.12
2023-04-18T05:48:15.178Z,37.19
2023-04-18T05:49:15.176Z,37.40
2023-04-18T05:50:15.444Z,37.54
2023-04-18T05:51:15.302Z,37.63
2023-04-18T05:52:15.220Z,37.89
2023-04-18T05:53:15.419Z,38.02
2023-04-18T05:54:15.238Z,38.27
2023-04-18T05:55:15.157Z,38.43
2023-04-18T05:56:15.151Z,38.37
2023-04-18T05:57:15.140Z,38.58
2023-04-18T05:58:15.100Z,38.73
2023-04-18T05:59:15.131Z,38.73
2023-04-18T06:00:15.171Z,39.09
2023-04-18T06:01:15.059Z,39.04
2023-04-18T06:02:15.186Z,39.15
2023-04-18T06:03:15.271Z,39.31
2023-04-18T06:04:15.355Z,39.30
2023-04-18T06:05:15.428Z,39.55
2023-04-18T06:06:15.053Z,39.61
2023-04-18T06:07:15.082Z,39.75
2023-04-18T06:08:15.138Z,39.80
2023-04-18T06:09:15.129Z,39.88
2023-04-18T06:10:15.179Z,40.09
2023-04-18T06:11:15.228Z,40.08
2023-04-18T06:12:15.303Z,40.25
2023-04-18T06:13:15.271Z,40.28
2023-04-18T06:14:15.805Z,40.39
2023-04-18T06:15:15.296Z,40.52
2023-04-18T06:16:15.363Z,40.48
2023-04-18T06:17:15.343Z,40.68
2023-04-18T06:18:15.411Z,40.80
2023-04-18T06:19:15.392Z,40.99
2023-04-18T06:20:15.408Z,41.08
2023-04-18T06:21:15.427Z,41.08
2023-04-18T06:22:15.452Z,41.29
2023-04-18T06:23:15.501Z,41.37
2023-04-18T06:24:15.755Z,41.51
2023-04-18T06:25:15.503Z,41.60
2023-04-18T06:26:15.526Z,41.67
2023-04-18T06:27:30.204Z,41.71
2023-04-18T06:28:16.639Z,41.84
2023-04-18T06:29:15.522Z,41.84
2023-04-18T06:30:15.520Z,41.94
2023-04-18T06:31:15.544Z,42.16
2023-04-18T06:32:15.484Z,42.04
2023-04-18T06:33:15.525Z,42.13
2023-04-18T06:34:15.802Z,42.15
2023-04-18T06:35:15.512Z,42.28
2023-04-18T06:36:15.477Z,42.32
2023-04-18T06:37:15.463Z,42.51
2023-04-18T06:38:15.984Z,42.78
2023-04-18T06:39:16.454Z,43.03
2023-04-18T06:40:15.999Z,42.50
2023-04-18T06:41:15.481Z,42.28
2023-04-18T06:42:15.457Z,41.81
2023-04-18T06:43:15.544Z,41.22
2023-04-18T06:44:15.481Z,40.53
2023-04-18T06:45:15.472Z,40.56
2023-04-18T06:46:15.414Z,40.52
2023-04-18T06:47:15.381Z,40.49
2023-04-18T06:48:15.407Z,40.48
2023-04-18T06:49:15.449Z,40.54
2023-04-18T06:50:15.493Z,40.46
2023-04-18T06:51:15.395Z,40.63
2023-04-18T06:52:15.384Z,40.61
2023-04-18T06:53:15.434Z,40.56
2023-04-18T06:54:15.556Z,40.70
2023-04-18T06:55:15.402Z,40.73
2023-04-18T06:56:15.420Z,40.73
2023-04-18T06:57:15.541Z,40.70
2023-04-18T06:58:15.691Z,40.69
2023-04-18T06:59:15.933Z,40.74
2023-04-18T07:00:15.954Z,40.90
2023-04-18T07:01:16.020Z,40.99
2023-04-18T07:02:16.071Z,41.00
2023-04-18T07:03:16.088Z,41.09
2023-04-18T07:04:16.258Z,41.14
2023-04-18T07:05:17.461Z,41.22
2023-04-18T07:06:15.954Z,41.36
2023-04-18T07:07:15.924Z,41.31
2023-04-18T07:08:16.420Z,41.41
2023-04-18T07:09:16.205Z,41.47
2023-04-18T07:10:16.002Z,41.52
2023-04-18T07:11:15.992Z,41.46
2023-04-18T07:12:16.120Z,41.44
2023-04-18T07:13:16.194Z,41.67
2023-04-18T07:14:16.551Z,41.64
2023-04-18T07:15:16.416Z,41.79
2023-04-18T07:16:16.563Z,41.75
2023-04-18T07:17:16.530Z,41.79
2023-04-18T07:18:26.530Z,41.87
2023-04-18T07:19:17.442Z,41.93
2023-04-18T07:20:16.476Z,42.08
2023-04-18T07:21:16.461Z,42.16
2023-04-18T07:22:16.412Z,42.16
2023-04-18T07:23:16.474Z,42.21
2023-04-18T07:24:16.578Z,42.35
2023-04-18T07:25:16.540Z,42.41
2023-04-18T07:26:16.386Z,42.48
2023-04-18T07:27:16.381Z,42.63
2023-04-18T07:28:16.374Z,42.63
2023-04-18T07:29:16.552Z,42.62
2023-04-18T07:30:16.573Z,42.64
2023-04-18T07:31:16.728Z,42.80
2023-04-18T07:32:17.440Z,42.73
2023-04-18T07:33:16.574Z,42.70
2023-04-18T07:34:16.985Z,42.81
2023-04-18T07:35:16.654Z,42.49
2023-04-18T07:36:16.679Z,41.94
2023-04-18T07:37:16.699Z,41.81
2023-04-18T07:38:16.735Z,41.33
2023-04-18T07:39:16.991Z,40.95
2023-04-18T07:40:17.013Z,40.94
2023-04-18T07:41:16.775Z,41.10
2023-04-18T07:42:16.814Z,41.13
2023-04-18T07:43:16.865Z,41.12
2023-04-18T07:44:16.890Z,41.10
2023-04-18T07:45:16.822Z,41.05
2023-04-18T07:46:16.871Z,41.02
2023-04-18T07:47:16.832Z,40.92
2023-04-18T07:48:16.996Z,40.88
2023-04-18T07:49:17.069Z,40.91
2023-04-18T07:50:17.141Z,40.86
2023-04-18T07:51:17.507Z,40.81
2023-04-18T07:52:17.128Z,40.76
2023-04-18T07:53:17.191Z,40.71
2023-04-18T07:54:17.232Z,40.68
2023-04-18T07:55:17.131Z,40.64
2023-04-18T07:56:17.504Z,40.62
2023-04-18T07:57:17.250Z,40.61
2023-04-18T07:58:17.351Z,40.58
2023-04-18T07:59:17.493Z,40.54
2023-04-18T08:00:17.425Z,40.46
2023-04-18T08:01:17.491Z,40.43
2023-04-18T08:02:17.544Z,40.40
2023-04-18T08:03:17.526Z,40.38
2023-04-18T08:04:17.622Z,40.35
2023-04-18T08:05:17.562Z,40.32
2023-04-18T08:06:17.481Z,40.28
2023-04-18T08:07:17.503Z,40.23
2023-04-18T08:08:17.594Z,40.18
2023-04-18T08:09:17.532Z,40.15
2023-04-18T08:10:17.547Z,40.08
2023-04-18T08:11:17.583Z,40.05
2023-04-18T08:12:17.596Z,39.95
2023-04-18T08:13:17.633Z,39.99
2023-04-18T08:14:17.644Z,39.96
2023-04-18T08:15:17.644Z,39.89
2023-04-18T08:16:17.857Z,39.85
2023-04-18T08:17:17.720Z,39.76
2023-04-18T08:18:17.719Z,39.80
2023-04-18T08:19:17.764Z,39.77
2023-04-18T08:20:17.748Z,39.70
2023-04-18T08:21:17.766Z,39.69
2023-04-18T08:22:17.783Z,39.63
2023-04-18T08:23:18.528Z,39.61
2023-04-18T08:24:17.906Z,39.60
2023-04-18T08:25:17.877Z,39.55
2023-04-18T08:26:18.007Z,39.49
2023-04-18T08:27:17.880Z,39.52
2023-04-18T08:28:17.952Z,39.47
2023-04-18T08:29:18.025Z,39.45
2023-04-18T08:30:17.989Z,39.44
2023-04-18T08:31:18.051Z,39.36
2023-04-18T08:32:17.976Z,39.31
2023-04-18T08:33:18.992Z,39.24
2023-04-18T08:34:18.524Z,39.24
2023-04-18T08:35:18.018Z,39.19
2023-04-18T08:36:18.044Z,39.14
2023-04-18T08:37:18.069Z,39.15
2023-04-18T08:38:18.143Z,39.07
2023-04-18T08:39:18.102Z,39.05
2023-04-18T08:40:18.500Z,39.00
2023-04-18T08:41:18.490Z,38.93
2023-04-18T08:42:18.992Z,38.31
2023-04-18T08:43:18.196Z,38.08
2023-04-18T08:44:18.245Z,37.74
2023-04-18T08:45:18.383Z,37.82
2023-04-18T08:46:18.513Z,37.85
2023-04-18T08:47:18.237Z,38.01
2023-04-18T08:48:18.371Z,38.01
2023-04-18T08:49:18.509Z,38.02
2023-04-18T08:50:18.537Z,38.07
2023-04-18T08:51:18.989Z,38.09
2023-04-18T08:52:18.541Z,38.10
2023-04-18T08:53:18.696Z,38.09
2023-04-18T08:54:18.738Z,38.04
2023-04-18T08:55:19.508Z,37.95
2023-04-18T08:56:18.985Z,37.99
2023-04-18T08:57:18.657Z,38.00
2023-04-18T08:58:18.668Z,38.10
2023-04-18T08:59:18.744Z,38.08
2023-04-18T09:00:18.998Z,38.19
2023-04-18T09:01:18.899Z,38.25
2023-04-18T09:02:18.925Z,38.25
2023-04-18T09:03:18.942Z,38.20
2023-04-18T09:04:19.054Z,38.12
2023-04-18T09:05:19.243Z,37.92
2023-04-18T09:06:19.455Z,37.93
2023-04-18T09:07:19.184Z,38.13
2023-04-18T09:08:19.260Z,37.83
2023-04-18T09:09:19.288Z,37.91
2023-04-18T09:10:19.350Z,37.71
2023-04-18T09:11:19.429Z,37.28
2023-04-18T09:12:19.545Z,37.05
2023-04-18T09:13:19.506Z,37.03
2023-04-18T09:14:19.531Z,37.07
2023-04-18T09:15:20.039Z,36.60
2023-04-18T09:16:19.675Z,36.59
2023-04-18T09:17:19.646Z,36.43
2023-04-18T09:18:19.702Z,36.15
2023-04-18T09:19:19.764Z,36.06
2023-04-18T09:20:19.986Z,36.09
2023-04-18T09:21:20.072Z,36.01
2023-04-18T09:22:19.838Z,36.24
2023-04-18T09:23:19.916Z,36.27
2023-04-18T09:24:19.937Z,36.28
2023-04-18T09:25:19.944Z,36.34
2023-04-18T09:26:19.980Z,36.20
2023-04-18T09:27:20.138Z,36.13
2023-04-18T09:28:20.088Z,36.22
2023-04-18T09:29:20.088Z,36.40
2023-04-18T09:30:20.131Z,36.42
2023-04-18T09:31:20.231Z,36.25
2023-04-18T09:32:20.400Z,36.56
2023-04-18T09:33:20.243Z,36.09
2023-04-18T09:34:20.267Z,35.71
2023-04-18T09:35:20.498Z,35.76
2023-04-18T09:36:20.462Z,35.84
2023-04-18T09:37:20.394Z,35.97
2023-04-18T09:38:20.444Z,35.99
2023-04-18T09:39:21.197Z,35.10
2023-04-18T09:40:20.583Z,34.94
2023-04-18T09:41:21.603Z,35.13
2023-04-18T09:42:20.736Z,35.49
2023-04-18T09:43:20.751Z,35.61
2023-04-18T09:44:21.010Z,35.57
2023-04-18T09:45:20.857Z,35.75
2023-04-18T09:46:20.878Z,35.58
2023-04-18T09:47:20.947Z,35.00
2023-04-18T09:48:21.005Z,34.52
2023-04-18T09:49:21.088Z,34.34
2023-04-18T09:50:22.024Z,34.86
2023-04-18T09:51:21.545Z,33.26
2023-04-18T09:52:21.258Z,34.14
2023-04-18T09:53:21.310Z,33.39
2023-04-18T09:54:21.408Z,33.83
2023-04-18T09:55:21.425Z,34.23
2023-04-18T09:56:21.556Z,34.56
2023-04-18T09:57:21.543Z,34.66
2023-04-18T09:58:21.701Z,34.67
2023-04-18T09:59:21.657Z,34.68
2023-04-18T10:00:21.833Z,34.56
2023-04-18T10:01:21.924Z,35.10
2023-04-18T10:02:22.012Z,34.81
2023-04-18T10:03:22.034Z,34.44
2023-04-18T10:04:22.155Z,34.46
2023-04-18T10:05:22.109Z,34.80
2023-04-18T10:06:22.107Z,35.06
2023-04-18T10:07:22.126Z,34.56
2023-04-18T10:08:22.259Z,34.82
2023-04-18T10:09:22.283Z,33.98
2023-04-18T10:10:22.424Z,34.43
2023-04-18T10:11:22.402Z,34.58
2023-04-18T10:12:22.458Z,34.78
2023-04-18T10:13:22.564Z,35.03
2023-04-18T10:14:22.646Z,35.04
2023-04-18T10:15:22.672Z,34.71
2023-04-18T10:16:22.749Z,34.95
2023-04-18T10:17:22.813Z,34.90
2023-04-18T10:18:22.930Z,34.96
2023-04-18T10:19:22.847Z,34.85
2023-04-18T10:20:22.965Z,35.11
2023-04-18T10:21:23.014Z,34.46
2023-04-18T10:22:23.022Z,34.57
2023-04-18T10:23:23.064Z,34.58
2023-04-18T10:24:23.158Z,34.27
2023-04-18T10:25:23.311Z,34.38
2023-04-18T10:26:23.633Z,33.72
2023-04-18T10:27:23.332Z,34.54
2023-04-18T10:28:23.307Z,34.90
2023-04-18T10:29:23.353Z,35.32
2023-04-18T10:30:23.577Z,35.42
2023-04-18T10:31:23.638Z,34.82
2023-04-18T10:32:23.653Z,34.17
2023-04-18T10:33:30.338Z,35.00
2023-04-18T10:34:24.668Z,34.78
2023-04-18T10:35:23.582Z,35.44
2023-04-18T10:36:23.592Z,35.36
2023-04-18T10:37:23.566Z,35.41
2023-04-18T10:38:23.597Z,34.82
2023-04-18T10:39:23.573Z,35.38
2023-04-18T10:40:23.535Z,35.51
2023-04-18T10:41:23.605Z,34.97
2023-04-18T10:42:23.611Z,35.35
2023-04-18T10:43:23.692Z,35.87
2023-04-18T10:44:24.059Z,36.10
2023-04-18T10:45:23.775Z,36.23
2023-04-18T10:46:31.904Z,36.27
2023-04-18T10:47:24.961Z,36.39
2023-04-18T10:48:23.903Z,36.16
2023-04-18T10:49:26.063Z,36.30
2023-04-18T10:50:23.812Z,36.37
2023-04-18T10:51:23.842Z,36.32
2023-04-18T10:52:23.817Z,36.52
2023-04-18T10:53:23.761Z,36.71
2023-04-18T10:54:23.771Z,36.91
2023-04-18T10:55:23.776Z,37.17
2023-04-18T10:56:23.777Z,36.64
2023-04-18T10:57:23.733Z,36.48
2023-04-18T10:58:23.757Z,36.55
2023-04-18T10:59:23.754Z,36.36
2023-04-18T11:00:23.710Z,36.37
2023-04-18T11:01:23.838Z,36.35
2023-04-18T11:02:23.854Z,36.35
2023-04-18T11:03:23.784Z,36.43
2023-04-18T11:04:23.722Z,36.48
2023-04-18T11:05:23.687Z,36.47
2023-04-18T11:06:23.676Z,36.61
2023-04-18T11:07:23.717Z,36.68
2023-04-18T11:08:23.689Z,36.66
2023-04-18T11:09:23.757Z,36.51
2023-04-18T11:10:23.775Z,36.45
2023-04-18T11:11:23.641Z,36.51
2023-04-18T11:12:23.671Z,36.11
2023-04-18T11:13:23.682Z,36.34
2023-04-18T11:14:23.770Z,36.48
2023-04-18T11:15:23.661Z,36.80
2023-04-18T11:16:23.634Z,36.79
2023-04-18T11:17:23.709Z,34.62
2023-04-18T11:18:23.615Z,35.33
2023-04-18T11:19:23.739Z,34.98
2023-04-18T11:20:23.664Z,34.83
2023-04-18T11:21:23.691Z,34.61
2023-04-18T11:22:23.806Z,34.69
2023-04-18T11:23:23.882Z,34.46
2023-04-18T11:24:23.892Z,34.36
2023-04-18T11:25:23.912Z,34.03
2023-04-18T11:26:23.989Z,33.39
2023-04-18T11:27:24.104Z,32.97
2023-04-18T11:28:23.999Z,33.62
2023-04-18T11:29:24.040Z,33.65
2023-04-18T11:30:24.052Z,33.16
2023-04-18T11:31:24.219Z,33.46
2023-04-18T11:32:24.408Z,33.53
2023-04-18T11:33:24.300Z,33.58
2023-04-18T11:34:24.233Z,33.47
2023-04-18T11:35:24.265Z,33.36
2023-04-18T11:36:24.243Z,33.48
2023-04-18T11:37:24.300Z,33.47
2023-04-18T11:38:24.374Z,33.03
2023-04-18T11:39:24.513Z,33.09
2023-04-18T11:40:24.485Z,32.96
2023-04-18T11:41:24.457Z,32.92
2023-04-18T11:42:24.542Z,32.49
2023-04-18T11:43:24.454Z,32.56
2023-04-18T11:44:24.502Z,32.36
2023-04-18T11:45:24.595Z,32.09
2023-04-18T11:46:24.741Z,32.36
2023-04-18T11:47:24.850Z,32.49
2023-04-18T11:48:24.883Z,32.33
2023-04-18T11:49:24.812Z,31.79
2023-04-18T11:50:24.859Z,31.98
2023-04-18T11:51:24.834Z,31.79
2023-04-18T11:52:24.933Z,31.94
2023-04-18T11:53:24.988Z,31.70
2023-04-18T11:54:25.118Z,31.85
2023-04-18T11:55:25.103Z,31.95
2023-04-18T11:56:25.134Z,31.91
2023-04-18T11:57:25.107Z,31.83
2023-04-18T11:58:25.090Z,31.91
2023-04-18T11:59:25.100Z,31.67
2023-04-18T12:00:25.106Z,32.01
2023-04-18T12:01:25.139Z,31.26
2023-04-18T12:02:25.266Z,31.65
2023-04-18T12:03:25.476Z,31.74
2023-04-18T12:04:25.483Z,31.00
2023-04-18T12:05:25.346Z,31.26
2023-04-18T12:06:25.319Z,30.88
2023-04-18T12:07:25.571Z,30.88
2023-04-18T12:08:25.317Z,30.88
2023-04-18T12:09:25.288Z,30.74
2023-04-18T12:10:25.313Z,30.83
2023-04-18T12:11:25.323Z,30.89
2023-04-18T12:12:25.385Z,30.85
2023-04-18T12:13:25.383Z,30.85
2023-04-18T12:14:25.375Z,30.79
2023-04-18T12:15:25.443Z,30.97
2023-04-18T12:16:25.561Z,30.88
2023-04-18T12:17:25.465Z,31.00
2023-04-18T12:18:25.478Z,30.38
2023-04-18T12:19:25.489Z,30.19
2023-04-18T12:20:25.549Z,30.08
2023-04-18T12:21:25.562Z,29.90
2023-04-18T12:22:25.584Z,30.52
2023-04-18T12:23:25.643Z,30.67
2023-04-18T12:24:25.661Z,30.70
2023-04-18T12:25:27.717Z,30.89
2023-04-18T12:26:25.728Z,30.75
2023-04-18T12:27:26.076Z,30.65
2023-04-18T12:28:25.759Z,30.31
2023-04-18T12:29:25.803Z,30.44
2023-04-18T12:30:25.826Z,30.28
2023-04-18T12:31:25.896Z,30.30
2023-04-18T12:32:26.091Z,30.28
2023-04-18T12:33:25.904Z,30.34
2023-04-18T12:34:25.961Z,30.50
2023-04-18T12:35:25.959Z,30.39
2023-04-18T12:36:25.984Z,30.01
2023-04-18T12:37:26.589Z,29.87
2023-04-18T12:38:26.069Z,29.81
2023-04-18T12:39:26.070Z,29.89
2023-04-18T12:40:26.139Z,29.88
2023-04-18T12:41:26.124Z,29.82
2023-04-18T12:42:26.602Z,29.45
2023-04-18T12:43:26.222Z,29.72
2023-04-18T12:44:26.239Z,29.80
2023-04-18T12:45:26.259Z,29.88
2023-04-18T12:46:26.323Z,29.82
2023-04-18T12:47:26.319Z,29.98
2023-04-18T12:48:26.315Z,29.66
2023-04-18T12:49:26.355Z,29.79
2023-04-18T12:50:26.404Z,29.78
2023-04-18T12:51:26.443Z,29.72
2023-04-18T12:52:26.460Z,29.67